sensor_id;sensor_type;location;lat;lon;timestamp;temperature;humidity
39519;DHT22;25200;53.394;10.414;2022-09-27T00:00:33;12.20;79.60
39519;DHT22;25200;53.394;10.414;2022-09-27T00:02:58;12.20;79.60
39519;DHT22;25200;53.394;10.414;2022-09-27T00:05:24;12.20;79.80
39519;DHT22;25200;53.394;10.414;2022-09-27T00:07:50;12.20;79.50
39519;DHT22;25200;53.394;10.414;2022-09-27T00:10:15;12.20;80.00
39519;DHT22;25200;53.394;10.414;2022-09-27T00:12:42;12.20;79.70
39519;DHT22;25200;53.394;10.414;2022-09-27T00:15:08;12.20;79.80
39519;DHT22;25200;53.394;10.414;2022-09-27T00:17:35;12.20;79.60
39519;DHT22;25200;53.394;10.414;2022-09-27T00:20:01;12.20;79.70
39519;DHT22;25200;53.394;10.414;2022-09-27T00:22:27;12.20;79.60
39519;DHT22;25200;53.394;10.414;2022-09-27T00:24:53;12.20;79.40
39519;DHT22;25200;53.394;10.414;2022-09-27T00:27:19;12.20;79.40
39519;DHT22;25200;53.394;10.414;2022-09-27T00:29:45;12.20;79.80
39519;DHT22;25200;53.394;10.414;2022-09-27T00:32:13;12.20;80.20
39519;DHT22;25200;53.394;10.414;2022-09-27T00:34:39;12.20;79.30
39519;DHT22;25200;53.394;10.414;2022-09-27T00:37:05;12.20;79.80
39519;DHT22;25200;53.394;10.414;2022-09-27T00:39:31;12.20;79.70
39519;DHT22;25200;53.394;10.414;2022-09-27T00:41:56;12.20;80.00
39519;DHT22;25200;53.394;10.414;2022-09-27T00:47:03;12.20;80.10
39519;DHT22;25200;53.394;10.414;2022-09-27T00:49:34;12.20;79.60
39519;DHT22;25200;53.394;10.414;2022-09-27T00:52:04;12.20;80.20
39519;DHT22;25200;53.394;10.414;2022-09-27T00:54:32;12.20;79.70
39519;DHT22;25200;53.394;10.414;2022-09-27T00:56:59;12.20;80.20
39519;DHT22;25200;53.394;10.414;2022-09-27T00:59:32;12.10;79.90
39519;DHT22;25200;53.394;10.414;2022-09-27T01:01:58;12.20;79.80
39519;DHT22;25200;53.394;10.414;2022-09-27T01:04:27;12.10;79.90
39519;DHT22;25200;53.394;10.414;2022-09-27T01:06:54;12.10;80.30
39519;DHT22;25200;53.394;10.414;2022-09-27T01:09:20;12.10;80.00
39519;DHT22;25200;53.394;10.414;2022-09-27T01:11:53;12.10;79.90
39519;DHT22;25200;53.394;10.414;2022-09-27T01:14:45;12.10;80.00
39519;DHT22;25200;53.394;10.414;2022-09-27T01:17:40;12.10;79.70
39519;DHT22;25200;53.394;10.414;2022-09-27T01:34:11;12.10;80.30
39519;DHT22;25200;53.394;10.414;2022-09-27T01:37:20;12.10;80.40
39519;DHT22;25200;53.394;10.414;2022-09-27T01:44:59;12.10;80.30
39519;DHT22;25200;53.394;10.414;2022-09-27T01:47:50;12.10;79.90
39519;DHT22;25200;53.394;10.414;2022-09-27T01:50:22;12.10;80.20
39519;DHT22;25200;53.394;10.414;2022-09-27T01:52:58;12.10;80.00
39519;DHT22;25200;53.394;10.414;2022-09-27T01:55:30;12.10;80.00
39519;DHT22;25200;53.394;10.414;2022-09-27T01:58:21;12.10;80.70
39519;DHT22;25200;53.394;10.414;2022-09-27T02:00:50;12.10;79.90
39519;DHT22;25200;53.394;10.414;2022-09-27T02:03:25;12.10;80.60
39519;DHT22;25200;53.394;10.414;2022-09-27T02:05:56;12.10;80.40
39519;DHT22;25200;53.394;10.414;2022-09-27T02:08:56;12.10;80.30
39519;DHT22;25200;53.394;10.414;2022-09-27T02:11:23;12.10;79.90
39519;DHT22;25200;53.394;10.414;2022-09-27T02:13:57;12.10;80.30
39519;DHT22;25200;53.394;10.414;2022-09-27T02:16:49;12.10;80.50
39519;DHT22;25200;53.394;10.414;2022-09-27T02:19:30;12.10;80.70
39519;DHT22;25200;53.394;10.414;2022-09-27T02:22:08;12.10;80.30
39519;DHT22;25200;53.394;10.414;2022-09-27T02:27:30;12.10;80.60
39519;DHT22;25200;53.394;10.414;2022-09-27T02:30:00;12.10;80.60
39519;DHT22;25200;53.394;10.414;2022-09-27T02:32:28;12.10;80.50
39519;DHT22;25200;53.394;10.414;2022-09-27T02:34:56;12.10;80.30
39519;DHT22;25200;53.394;10.414;2022-09-27T02:37:23;12.10;80.40
39519;DHT22;25200;53.394;10.414;2022-09-27T02:39:48;12.10;80.00
39519;DHT22;25200;53.394;10.414;2022-09-27T02:42:14;12.10;80.60
39519;DHT22;25200;53.394;10.414;2022-09-27T02:44:41;12.10;80.40
39519;DHT22;25200;53.394;10.414;2022-09-27T03:00:21;12.10;80.60
39519;DHT22;25200;53.394;10.414;2022-09-27T03:03:06;12.10;80.40
39519;DHT22;25200;53.394;10.414;2022-09-27T03:05:50;12.10;80.40
39519;DHT22;25200;53.394;10.414;2022-09-27T03:08:17;12.10;80.30
39519;DHT22;25200;53.394;10.414;2022-09-27T03:10:43;12.10;80.30
39519;DHT22;25200;53.394;10.414;2022-09-27T03:13:09;12.10;80.40
39519;DHT22;25200;53.394;10.414;2022-09-27T03:15:38;12.10;80.60
39519;DHT22;25200;53.394;10.414;2022-09-27T03:18:04;12.10;80.60
39519;DHT22;25200;53.394;10.414;2022-09-27T03:20:30;12.10;80.60
39519;DHT22;25200;53.394;10.414;2022-09-27T03:22:56;12.10;80.50
39519;DHT22;25200;53.394;10.414;2022-09-27T03:25:21;12.10;80.20
39519;DHT22;25200;53.394;10.414;2022-09-27T03:27:47;12.10;80.80
39519;DHT22;25200;53.394;10.414;2022-09-27T03:30:13;12.10;80.40
39519;DHT22;25200;53.394;10.414;2022-09-27T03:32:42;12.10;80.70
39519;DHT22;25200;53.394;10.414;2022-09-27T03:35:09;12.10;80.70
39519;DHT22;25200;53.394;10.414;2022-09-27T03:37:34;12.10;80.70
39519;DHT22;25200;53.394;10.414;2022-09-27T03:40:00;12.10;80.80
39519;DHT22;25200;53.394;10.414;2022-09-27T03:42:26;12.10;80.90
39519;DHT22;25200;53.394;10.414;2022-09-27T03:44:51;12.10;80.70
39519;DHT22;25200;53.394;10.414;2022-09-27T03:47:17;12.10;80.70
39519;DHT22;25200;53.394;10.414;2022-09-27T03:49:43;12.10;80.40
39519;DHT22;25200;53.394;10.414;2022-09-27T03:52:09;12.10;80.70
39519;DHT22;25200;53.394;10.414;2022-09-27T03:54:35;12.10;80.90
39519;DHT22;25200;53.394;10.414;2022-09-27T03:57:00;12.10;80.60
39519;DHT22;25200;53.394;10.414;2022-09-27T03:59:26;12.10;80.80
39519;DHT22;25200;53.394;10.414;2022-09-27T04:01:51;12.10;81.10
39519;DHT22;25200;53.394;10.414;2022-09-27T04:04:17;12.10;80.80
39519;DHT22;25200;53.394;10.414;2022-09-27T04:06:43;12.10;81.10
39519;DHT22;25200;53.394;10.414;2022-09-27T04:09:08;12.10;81.10
39519;DHT22;25200;53.394;10.414;2022-09-27T04:11:34;12.10;80.60
39519;DHT22;25200;53.394;10.414;2022-09-27T04:14:00;12.10;81.00
39519;DHT22;25200;53.394;10.414;2022-09-27T04:16:26;12.10;80.70
39519;DHT22;25200;53.394;10.414;2022-09-27T04:18:52;12.10;80.70
39519;DHT22;25200;53.394;10.414;2022-09-27T04:21:17;12.10;80.50
39519;DHT22;25200;53.394;10.414;2022-09-27T04:23:45;12.10;80.60
39519;DHT22;25200;53.394;10.414;2022-09-27T04:26:11;12.10;80.90
39519;DHT22;25200;53.394;10.414;2022-09-27T04:28:38;12.10;80.80
39519;DHT22;25200;53.394;10.414;2022-09-27T04:31:03;12.10;80.80
39519;DHT22;25200;53.394;10.414;2022-09-27T04:33:29;12.10;81.00
39519;DHT22;25200;53.394;10.414;2022-09-27T04:35:55;12.10;80.70
39519;DHT22;25200;53.394;10.414;2022-09-27T04:38:39;12.10;81.10
39519;DHT22;25200;53.394;10.414;2022-09-27T04:41:04;12.10;80.90
39519;DHT22;25200;53.394;10.414;2022-09-27T04:43:31;12.10;80.80
39519;DHT22;25200;53.394;10.414;2022-09-27T04:45:56;12.10;81.00
39519;DHT22;25200;53.394;10.414;2022-09-27T04:48:22;12.10;80.80
39519;DHT22;25200;53.394;10.414;2022-09-27T04:50:58;12.10;81.20
39519;DHT22;25200;53.394;10.414;2022-09-27T04:53:25;12.10;81.00
39519;DHT22;25200;53.394;10.414;2022-09-27T04:55:52;12.10;80.70
39519;DHT22;25200;53.394;10.414;2022-09-27T04:58:19;12.10;80.60
39519;DHT22;25200;53.394;10.414;2022-09-27T05:00:46;12.10;80.80
39519;DHT22;25200;53.394;10.414;2022-09-27T05:03:12;12.10;81.10
39519;DHT22;25200;53.394;10.414;2022-09-27T05:05:39;12.10;80.40
39519;DHT22;25200;53.394;10.414;2022-09-27T05:08:06;12.10;80.90
39519;DHT22;25200;53.394;10.414;2022-09-27T05:10:31;12.10;80.90
39519;DHT22;25200;53.394;10.414;2022-09-27T05:12:57;12.10;81.00
39519;DHT22;25200;53.394;10.414;2022-09-27T05:15:23;12.10;80.70
39519;DHT22;25200;53.394;10.414;2022-09-27T05:17:51;12.10;81.00
39519;DHT22;25200;53.394;10.414;2022-09-27T05:20:17;12.10;80.70
39519;DHT22;25200;53.394;10.414;2022-09-27T05:22:44;12.10;81.00
39519;DHT22;25200;53.394;10.414;2022-09-27T05:25:10;12.00;80.90
39519;DHT22;25200;53.394;10.414;2022-09-27T05:27:36;12.10;81.00
39519;DHT22;25200;53.394;10.414;2022-09-27T05:30:02;12.10;81.30
39519;DHT22;25200;53.394;10.414;2022-09-27T05:32:28;12.10;80.90
39519;DHT22;25200;53.394;10.414;2022-09-27T05:34:54;12.10;80.90
39519;DHT22;25200;53.394;10.414;2022-09-27T05:37:19;12.10;81.00
39519;DHT22;25200;53.394;10.414;2022-09-27T05:39:45;12.10;80.80
39519;DHT22;25200;53.394;10.414;2022-09-27T05:42:11;12.10;80.60
39519;DHT22;25200;53.394;10.414;2022-09-27T05:44:40;12.10;80.70
39519;DHT22;25200;53.394;10.414;2022-09-27T05:47:06;12.10;81.20
39519;DHT22;25200;53.394;10.414;2022-09-27T05:49:33;12.10;81.20
39519;DHT22;25200;53.394;10.414;2022-09-27T05:51:59;12.10;81.20
39519;DHT22;25200;53.394;10.414;2022-09-27T05:54:24;12.10;80.90
39519;DHT22;25200;53.394;10.414;2022-09-27T05:56:54;12.10;80.80
39519;DHT22;25200;53.394;10.414;2022-09-27T05:59:23;12.10;80.70
39519;DHT22;25200;53.394;10.414;2022-09-27T06:01:49;12.10;81.00
39519;DHT22;25200;53.394;10.414;2022-09-27T06:04:16;12.20;80.50
39519;DHT22;25200;53.394;10.414;2022-09-27T06:06:42;12.20;80.40
39519;DHT22;25200;53.394;10.414;2022-09-27T06:09:13;12.20;80.60
39519;DHT22;25200;53.394;10.414;2022-09-27T06:11:39;12.20;80.80
39519;DHT22;25200;53.394;10.414;2022-09-27T06:14:05;12.20;80.40
39519;DHT22;25200;53.394;10.414;2022-09-27T06:16:31;12.20;80.40
39519;DHT22;25200;53.394;10.414;2022-09-27T06:18:56;12.20;80.60
39519;DHT22;25200;53.394;10.414;2022-09-27T06:21:23;12.20;80.20
39519;DHT22;25200;53.394;10.414;2022-09-27T06:23:49;12.20;80.30
39519;DHT22;25200;53.394;10.414;2022-09-27T06:26:15;12.20;80.70
39519;DHT22;25200;53.394;10.414;2022-09-27T06:28:41;12.20;80.40
39519;DHT22;25200;53.394;10.414;2022-09-27T06:31:19;12.20;80.50
39519;DHT22;25200;53.394;10.414;2022-09-27T06:33:48;12.20;80.30
39519;DHT22;25200;53.394;10.414;2022-09-27T06:36:14;12.30;80.00
39519;DHT22;25200;53.394;10.414;2022-09-27T06:38:39;12.20;80.40
39519;DHT22;25200;53.394;10.414;2022-09-27T06:41:05;12.20;80.40
39519;DHT22;25200;53.394;10.414;2022-09-27T06:43:31;12.20;80.70
39519;DHT22;25200;53.394;10.414;2022-09-27T06:45:59;12.30;80.20
39519;DHT22;25200;53.394;10.414;2022-09-27T06:48:30;12.20;80.80
39519;DHT22;25200;53.394;10.414;2022-09-27T06:50:56;12.20;80.40
39519;DHT22;25200;53.394;10.414;2022-09-27T06:53:23;12.30;80.50
39519;DHT22;25200;53.394;10.414;2022-09-27T06:55:49;12.30;80.30
39519;DHT22;25200;53.394;10.414;2022-09-27T06:58:16;12.30;80.30
39519;DHT22;25200;53.394;10.414;2022-09-27T07:01:00;12.30;80.60
39519;DHT22;25200;53.394;10.414;2022-09-27T07:03:27;12.30;80.20
39519;DHT22;25200;53.394;10.414;2022-09-27T07:06:03;12.30;80.20
39519;DHT22;25200;53.394;10.414;2022-09-27T07:08:31;12.30;80.30
39519;DHT22;25200;53.394;10.414;2022-09-27T07:11:04;12.30;80.10
39519;DHT22;25200;53.394;10.414;2022-09-27T07:13:30;12.30;80.00
39519;DHT22;25200;53.394;10.414;2022-09-27T07:15:59;12.40;80.40
39519;DHT22;25200;53.394;10.414;2022-09-27T07:18:25;12.40;80.20
39519;DHT22;25200;53.394;10.414;2022-09-27T07:20:51;12.40;80.10
39519;DHT22;25200;53.394;10.414;2022-09-27T07:23:17;12.40;80.00
39519;DHT22;25200;53.394;10.414;2022-09-27T07:25:43;12.50;80.10
39519;DHT22;25200;53.394;10.414;2022-09-27T07:28:13;12.50;80.00
39519;DHT22;25200;53.394;10.414;2022-09-27T07:30:39;12.50;80.20
39519;DHT22;25200;53.394;10.414;2022-09-27T07:33:06;12.50;80.00
39519;DHT22;25200;53.394;10.414;2022-09-27T07:35:33;12.60;79.90
39519;DHT22;25200;53.394;10.414;2022-09-27T07:38:01;12.60;80.00
39519;DHT22;25200;53.394;10.414;2022-09-27T07:40:28;12.60;79.90
39519;DHT22;25200;53.394;10.414;2022-09-27T07:42:57;12.60;80.00
39519;DHT22;25200;53.394;10.414;2022-09-27T07:45:23;12.70;80.00
39519;DHT22;25200;53.394;10.414;2022-09-27T07:47:49;12.70;79.90
39519;DHT22;25200;53.394;10.414;2022-09-27T07:50:16;12.70;80.00
39519;DHT22;25200;53.394;10.414;2022-09-27T07:52:43;12.70;79.90
39519;DHT22;25200;53.394;10.414;2022-09-27T07:55:09;12.70;79.90
39519;DHT22;25200;53.394;10.414;2022-09-27T07:57:36;12.80;80.00
39519;DHT22;25200;53.394;10.414;2022-09-27T08:00:07;12.80;79.90
39519;DHT22;25200;53.394;10.414;2022-09-27T08:02:34;12.80;80.00
39519;DHT22;25200;53.394;10.414;2022-09-27T08:04:59;12.80;79.90
39519;DHT22;25200;53.394;10.414;2022-09-27T08:07:26;12.80;80.00
39519;DHT22;25200;53.394;10.414;2022-09-27T08:09:52;12.90;80.00
39519;DHT22;25200;53.394;10.414;2022-09-27T08:12:18;12.90;79.90
39519;DHT22;25200;53.394;10.414;2022-09-27T08:14:46;12.90;79.70
39519;DHT22;25200;53.394;10.414;2022-09-27T08:17:12;13.00;79.80
39519;DHT22;25200;53.394;10.414;2022-09-27T08:19:38;13.10;79.60
39519;DHT22;25200;53.394;10.414;2022-09-27T08:22:05;13.10;79.60
39519;DHT22;25200;53.394;10.414;2022-09-27T08:24:31;13.20;79.60
39519;DHT22;25200;53.394;10.414;2022-09-27T08:26:57;13.20;79.40
39519;DHT22;25200;53.394;10.414;2022-09-27T08:29:23;13.20;79.40
39519;DHT22;25200;53.394;10.414;2022-09-27T08:31:52;13.20;79.40
39519;DHT22;25200;53.394;10.414;2022-09-27T08:34:19;13.20;79.20
39519;DHT22;25200;53.394;10.414;2022-09-27T08:36:46;13.30;79.40
39519;DHT22;25200;53.394;10.414;2022-09-27T08:39:12;13.30;79.40
39519;DHT22;25200;53.394;10.414;2022-09-27T08:41:51;13.30;79.40
39519;DHT22;25200;53.394;10.414;2022-09-27T08:46:56;13.40;79.30
39519;DHT22;25200;53.394;10.414;2022-09-27T08:52:18;13.50;79.30
39519;DHT22;25200;53.394;10.414;2022-09-27T08:54:45;13.50;79.20
39519;DHT22;25200;53.394;10.414;2022-09-27T08:57:13;13.50;78.90
39519;DHT22;25200;53.394;10.414;2022-09-27T08:59:51;13.50;79.10
39519;DHT22;25200;53.394;10.414;2022-09-27T09:02:21;13.50;79.20
39519;DHT22;25200;53.394;10.414;2022-09-27T09:04:55;13.50;79.10
39519;DHT22;25200;53.394;10.414;2022-09-27T09:12:44;13.50;79.20
39519;DHT22;25200;53.394;10.414;2022-09-27T09:27:21;13.50;79.20
39519;DHT22;25200;53.394;10.414;2022-09-27T09:30:14;13.50;79.20
39519;DHT22;25200;53.394;10.414;2022-09-27T09:35:38;13.50;79.10
39519;DHT22;25200;53.394;10.414;2022-09-27T09:38:13;13.50;79.10
39519;DHT22;25200;53.394;10.414;2022-09-27T09:40:56;13.50;79.20
39519;DHT22;25200;53.394;10.414;2022-09-27T09:43:39;13.50;79.30
39519;DHT22;25200;53.394;10.414;2022-09-27T09:46:19;13.50;79.20
39519;DHT22;25200;53.394;10.414;2022-09-27T09:48:50;13.50;79.30
39519;DHT22;25200;53.394;10.414;2022-09-27T09:51:33;13.50;79.40
39519;DHT22;25200;53.394;10.414;2022-09-27T09:54:07;13.60;79.40
39519;DHT22;25200;53.394;10.414;2022-09-27T09:56:54;13.50;79.30
39519;DHT22;25200;53.394;10.414;2022-09-27T10:02:20;13.60;79.30
39519;DHT22;25200;53.394;10.414;2022-09-27T10:04:49;13.60;79.40
39519;DHT22;25200;53.394;10.414;2022-09-27T10:07:20;13.70;79.30
39519;DHT22;25200;53.394;10.414;2022-09-27T10:09:49;13.70;79.20
39519;DHT22;25200;53.394;10.414;2022-09-27T10:12:15;13.80;79.20
39519;DHT22;25200;53.394;10.414;2022-09-27T10:14:42;13.80;79.10
39519;DHT22;25200;53.394;10.414;2022-09-27T10:17:12;13.80;79.00
39519;DHT22;25200;53.394;10.414;2022-09-27T10:19:41;13.80;78.90
39519;DHT22;25200;53.394;10.414;2022-09-27T10:22:35;13.90;78.80
39519;DHT22;25200;53.394;10.414;2022-09-27T10:25:04;13.90;78.80
39519;DHT22;25200;53.394;10.414;2022-09-27T10:27:39;13.90;78.80
39519;DHT22;25200;53.394;10.414;2022-09-27T10:32:53;13.90;78.90
39519;DHT22;25200;53.394;10.414;2022-09-27T10:35:41;14.00;78.90
39519;DHT22;25200;53.394;10.414;2022-09-27T10:40:47;14.10;78.90
39519;DHT22;25200;53.394;10.414;2022-09-27T10:48:43;14.10;78.70
39519;DHT22;25200;53.394;10.414;2022-09-27T10:51:22;14.20;78.60
39519;DHT22;25200;53.394;10.414;2022-09-27T10:53:48;14.10;78.50
39519;DHT22;25200;53.394;10.414;2022-09-27T10:56:23;14.20;78.60
39519;DHT22;25200;53.394;10.414;2022-09-27T10:58:50;14.20;78.50
39519;DHT22;25200;53.394;10.414;2022-09-27T11:01:16;14.20;78.40
39519;DHT22;25200;53.394;10.414;2022-09-27T11:03:51;14.20;78.40
39519;DHT22;25200;53.394;10.414;2022-09-27T11:08:45;14.20;78.80
39519;DHT22;25200;53.394;10.414;2022-09-27T11:13:39;14.20;78.30
39519;DHT22;25200;53.394;10.414;2022-09-27T11:24:41;14.30;78.20
39519;DHT22;25200;53.394;10.414;2022-09-27T11:30:16;14.20;78.10
39519;DHT22;25200;53.394;10.414;2022-09-27T11:33:00;14.20;78.20
39519;DHT22;25200;53.394;10.414;2022-09-27T11:38:31;14.20;78.20
39519;DHT22;25200;53.394;10.414;2022-09-27T11:41:22;14.30;78.30
39519;DHT22;25200;53.394;10.414;2022-09-27T11:46:39;14.30;78.20
39519;DHT22;25200;53.394;10.414;2022-09-27T11:58:15;14.20;78.00
39519;DHT22;25200;53.394;10.414;2022-09-27T12:00:56;14.10;78.00
39519;DHT22;25200;53.394;10.414;2022-09-27T12:09:02;13.90;78.30
39519;DHT22;25200;53.394;10.414;2022-09-27T12:14:23;13.90;78.40
39519;DHT22;25200;53.394;10.414;2022-09-27T12:16:52;13.90;78.40
39519;DHT22;25200;53.394;10.414;2022-09-27T12:19:31;13.90;78.50
39519;DHT22;25200;53.394;10.414;2022-09-27T12:22:03;13.90;78.50
39519;DHT22;25200;53.394;10.414;2022-09-27T12:24:29;13.90;78.50
39519;DHT22;25200;53.394;10.414;2022-09-27T12:27:00;13.90;78.50
39519;DHT22;25200;53.394;10.414;2022-09-27T12:29:30;13.90;78.60
39519;DHT22;25200;53.394;10.414;2022-09-27T12:32:21;13.90;78.60
39519;DHT22;25200;53.394;10.414;2022-09-27T12:35:15;14.00;78.80
39519;DHT22;25200;53.394;10.414;2022-09-27T12:38:20;14.00;78.60
39519;DHT22;25200;53.394;10.414;2022-09-27T12:40:55;14.10;78.60
39519;DHT22;25200;53.394;10.414;2022-09-27T12:43:24;14.10;78.50
39519;DHT22;25200;53.394;10.414;2022-09-27T12:51:42;14.20;78.60
39519;DHT22;25200;53.394;10.414;2022-09-27T13:13:32;14.00;78.40
39519;DHT22;25200;53.394;10.414;2022-09-27T13:16:00;14.00;78.60
39519;DHT22;25200;53.394;10.414;2022-09-27T13:21:09;13.90;78.40
39519;DHT22;25200;53.394;10.414;2022-09-27T13:29:01;13.90;78.50
39519;DHT22;25200;53.394;10.414;2022-09-27T13:34:47;13.90;78.60
39519;DHT22;25200;53.394;10.414;2022-09-27T13:37:51;13.90;78.50
39519;DHT22;25200;53.394;10.414;2022-09-27T13:40:27;13.90;78.50
39519;DHT22;25200;53.394;10.414;2022-09-27T13:45:50;13.90;78.50
39519;DHT22;25200;53.394;10.414;2022-09-27T13:56:53;13.80;78.50
39519;DHT22;25200;53.394;10.414;2022-09-27T13:59:47;13.80;78.50
39519;DHT22;25200;53.394;10.414;2022-09-27T14:02:19;13.80;78.60
39519;DHT22;25200;53.394;10.414;2022-09-27T14:04:49;13.80;78.60
39519;DHT22;25200;53.394;10.414;2022-09-27T14:07:38;13.80;78.50
39519;DHT22;25200;53.394;10.414;2022-09-27T14:10:10;13.80;78.60
39519;DHT22;25200;53.394;10.414;2022-09-27T14:12:39;13.80;78.50
39519;DHT22;25200;53.394;10.414;2022-09-27T14:15:08;13.80;78.50
39519;DHT22;25200;53.394;10.414;2022-09-27T14:17:40;13.80;78.50
39519;DHT22;25200;53.394;10.414;2022-09-27T14:23:00;13.90;78.50
39519;DHT22;25200;53.394;10.414;2022-09-27T14:25:26;13.90;78.40
39519;DHT22;25200;53.394;10.414;2022-09-27T14:27:52;13.90;78.50
39519;DHT22;25200;53.394;10.414;2022-09-27T14:30:20;13.90;78.50
39519;DHT22;25200;53.394;10.414;2022-09-27T14:32:51;13.90;78.40
39519;DHT22;25200;53.394;10.414;2022-09-27T14:35:21;13.90;78.40
39519;DHT22;25200;53.394;10.414;2022-09-27T14:38:30;14.00;78.40
39519;DHT22;25200;53.394;10.414;2022-09-27T14:40:58;14.00;78.30
39519;DHT22;25200;53.394;10.414;2022-09-27T14:43:24;14.00;78.20
39519;DHT22;25200;53.394;10.414;2022-09-27T14:45:55;14.00;78.20
39519;DHT22;25200;53.394;10.414;2022-09-27T14:48:30;14.00;78.70
39519;DHT22;25200;53.394;10.414;2022-09-27T14:51:49;14.00;78.10
39519;DHT22;25200;53.394;10.414;2022-09-27T14:53:51;14.00;78.00
39519;DHT22;25200;53.394;10.414;2022-09-27T14:56:24;14.00;78.00
39519;DHT22;25200;53.394;10.414;2022-09-27T14:59:01;14.00;78.10
39519;DHT22;25200;53.394;10.414;2022-09-27T15:01:28;14.00;78.00
39519;DHT22;25200;53.394;10.414;2022-09-27T15:04:01;14.00;78.00
39519;DHT22;25200;53.394;10.414;2022-09-27T15:06:28;13.90;77.90
39519;DHT22;25200;53.394;10.414;2022-09-27T15:08:54;13.90;77.90
39519;DHT22;25200;53.394;10.414;2022-09-27T15:11:19;13.90;77.80
39519;DHT22;25200;53.394;10.414;2022-09-27T15:13:48;14.00;77.80
39519;DHT22;25200;53.394;10.414;2022-09-27T15:16:17;13.90;77.80
39519;DHT22;25200;53.394;10.414;2022-09-27T15:18:49;13.90;77.70
39519;DHT22;25200;53.394;10.414;2022-09-27T15:21:36;13.80;77.80
39519;DHT22;25200;53.394;10.414;2022-09-27T15:24:02;13.80;77.80
39519;DHT22;25200;53.394;10.414;2022-09-27T15:26:43;13.80;77.80
39519;DHT22;25200;53.394;10.414;2022-09-27T15:29:28;13.70;77.80
39519;DHT22;25200;53.394;10.414;2022-09-27T15:31:59;13.70;77.80
39519;DHT22;25200;53.394;10.414;2022-09-27T15:34:25;13.60;77.90
39519;DHT22;25200;53.394;10.414;2022-09-27T15:36:53;13.60;77.90
39519;DHT22;25200;53.394;10.414;2022-09-27T15:39:29;13.60;78.10
39519;DHT22;25200;53.394;10.414;2022-09-27T15:42:13;13.60;78.10
39519;DHT22;25200;53.394;10.414;2022-09-27T15:47:47;13.50;78.10
39519;DHT22;25200;53.394;10.414;2022-09-27T15:55:12;13.50;78.30
39519;DHT22;25200;53.394;10.414;2022-09-27T15:57:39;13.40;78.30
39519;DHT22;25200;53.394;10.414;2022-09-27T16:00:09;13.40;78.30
39519;DHT22;25200;53.394;10.414;2022-09-27T16:02:36;13.40;78.40
39519;DHT22;25200;53.394;10.414;2022-09-27T16:05:02;13.40;78.40
39519;DHT22;25200;53.394;10.414;2022-09-27T16:07:27;13.40;78.30
39519;DHT22;25200;53.394;10.414;2022-09-27T16:09:53;13.40;78.40
39519;DHT22;25200;53.394;10.414;2022-09-27T16:12:20;13.30;78.30
39519;DHT22;25200;53.394;10.414;2022-09-27T16:14:46;13.30;78.80
39519;DHT22;25200;53.394;10.414;2022-09-27T16:17:13;13.30;78.20
39519;DHT22;25200;53.394;10.414;2022-09-27T16:19:39;13.30;78.40
39519;DHT22;25200;53.394;10.414;2022-09-27T16:22:04;13.20;78.40
39519;DHT22;25200;53.394;10.414;2022-09-27T16:24:30;13.20;78.40
39519;DHT22;25200;53.394;10.414;2022-09-27T16:26:57;13.20;78.20
39519;DHT22;25200;53.394;10.414;2022-09-27T16:29:22;13.10;78.30
39519;DHT22;25200;53.394;10.414;2022-09-27T16:31:48;13.10;78.40
39519;DHT22;25200;53.394;10.414;2022-09-27T16:34:15;13.10;78.50
39519;DHT22;25200;53.394;10.414;2022-09-27T16:36:41;13.00;78.40
39519;DHT22;25200;53.394;10.414;2022-09-27T16:39:10;13.00;78.60
39519;DHT22;25200;53.394;10.414;2022-09-27T16:41:37;13.00;78.70
39519;DHT22;25200;53.394;10.414;2022-09-27T16:44:12;12.90;78.60
39519;DHT22;25200;53.394;10.414;2022-09-27T16:46:42;12.90;78.60
39519;DHT22;25200;53.394;10.414;2022-09-27T16:49:10;12.90;78.90
39519;DHT22;25200;53.394;10.414;2022-09-27T16:51:56;12.90;78.80
39519;DHT22;25200;53.394;10.414;2022-09-27T16:54:26;12.90;78.70
39519;DHT22;25200;53.394;10.414;2022-09-27T16:56:54;12.80;78.70
39519;DHT22;25200;53.394;10.414;2022-09-27T16:59:19;12.90;78.80
39519;DHT22;25200;53.394;10.414;2022-09-27T17:01:45;12.80;78.80
39519;DHT22;25200;53.394;10.414;2022-09-27T17:04:12;12.80;79.00
39519;DHT22;25200;53.394;10.414;2022-09-27T17:06:38;12.80;78.90
39519;DHT22;25200;53.394;10.414;2022-09-27T17:09:04;12.70;78.90
39519;DHT22;25200;53.394;10.414;2022-09-27T17:11:31;12.70;79.10
39519;DHT22;25200;53.394;10.414;2022-09-27T17:13:56;12.70;79.20
39519;DHT22;25200;53.394;10.414;2022-09-27T17:16:23;12.70;79.20
39519;DHT22;25200;53.394;10.414;2022-09-27T17:18:49;12.60;79.30
39519;DHT22;25200;53.394;10.414;2022-09-27T17:21:14;12.70;79.50
39519;DHT22;25200;53.394;10.414;2022-09-27T17:23:40;12.60;79.40
39519;DHT22;25200;53.394;10.414;2022-09-27T17:26:15;12.60;79.50
39519;DHT22;25200;53.394;10.414;2022-09-27T17:28:41;12.60;79.60
39519;DHT22;25200;53.394;10.414;2022-09-27T17:31:08;12.60;79.60
39519;DHT22;25200;53.394;10.414;2022-09-27T17:33:46;12.60;79.60
39519;DHT22;25200;53.394;10.414;2022-09-27T17:36:18;12.50;79.80
39519;DHT22;25200;53.394;10.414;2022-09-27T17:38:45;12.50;79.80
39519;DHT22;25200;53.394;10.414;2022-09-27T17:41:13;12.50;80.00
39519;DHT22;25200;53.394;10.414;2022-09-27T17:43:41;12.50;79.90
39519;DHT22;25200;53.394;10.414;2022-09-27T17:46:27;12.50;80.00
39519;DHT22;25200;53.394;10.414;2022-09-27T17:48:53;12.50;80.30
39519;DHT22;25200;53.394;10.414;2022-09-27T17:51:39;12.50;80.10
39519;DHT22;25200;53.394;10.414;2022-09-27T17:54:06;12.50;79.90
39519;DHT22;25200;53.394;10.414;2022-09-27T17:56:35;12.50;80.00
39519;DHT22;25200;53.394;10.414;2022-09-27T17:59:02;12.50;80.20
39519;DHT22;25200;53.394;10.414;2022-09-27T18:01:27;12.50;80.50
39519;DHT22;25200;53.394;10.414;2022-09-27T18:03:55;12.50;80.30
39519;DHT22;25200;53.394;10.414;2022-09-27T18:06:21;12.40;80.30
39519;DHT22;25200;53.394;10.414;2022-09-27T18:08:48;12.50;80.50
39519;DHT22;25200;53.394;10.414;2022-09-27T18:11:16;12.40;80.10
39519;DHT22;25200;53.394;10.414;2022-09-27T18:13:43;12.40;81.00
39519;DHT22;25200;53.394;10.414;2022-09-27T18:16:11;12.40;80.40
39519;DHT22;25200;53.394;10.414;2022-09-27T18:18:38;12.40;80.30
39519;DHT22;25200;53.394;10.414;2022-09-27T18:21:08;12.40;80.40
39519;DHT22;25200;53.394;10.414;2022-09-27T18:23:37;12.40;80.40
39519;DHT22;25200;53.394;10.414;2022-09-27T18:26:03;12.40;80.70
39519;DHT22;25200;53.394;10.414;2022-09-27T18:28:36;12.30;80.30